Terminal Aerodrome Forecast
Issued by NWS Denver/Boulder, CO

Home | Current Version | Previous Version | Text Only | Print | Product List | Glossary Off
Versions: 1 2 3 4 5 6 7 8 9 10 11 12 13 14 15 16 17 18 19 20 21 22 23 24 25 26 27 28 29 30 31 32 33 34 35 36 37 38 39 40 41 42 43 44 45 46 47 48 49 50

571
FTUS45 KBOU 280900 AAA
TAFDEN
TAF AMD
KDEN 280900Z 2809/2912 20011KT P6SM FEW200
     FM281600 VRB05KT P6SM FEW070 SCT220
     FM282000 15007KT P6SM SCT070 BKN120
     FM290200 22009KT P6SM FEW080 SCT150=

USA.gov is the U.S. government's official web portal to all federal, state and local government web resources and services.